Aviation Digital Data Service (ADDS)

Output produced by TAFs form (1826 UTC 27 June 2016)
found at http://aviationweather.gov/adds/tafs/
 
KASE 271720Z 2718/2818 34005KT P6SM FEW250 
     FM280100 20007KT P6SM SCT250 
     FM280200 05006KT P6SM SCT250 
     FM280300 18004KT P6SM SCT250 
     FM281400 00000KT P6SM SCT250